createdAt,value
2024-05-09T00:01:49.403Z,99203.63
2024-05-09T00:06:51.263Z,99203.97
2024-05-09T00:11:53.262Z,99207.66
2024-05-09T00:16:55.209Z,99213.22
2024-05-09T00:21:57.054Z,99204.00
2024-05-09T00:26:58.861Z,99203.31
2024-05-09T00:32:00.846Z,99210.38
2024-05-09T00:37:02.830Z,99210.88
2024-05-09T00:42:04.939Z,99214.50
2024-05-09T00:47:07.861Z,99208.94
2024-05-09T00:52:10.494Z,99204.63
2024-05-09T00:57:13.989Z,99197.50
2024-05-09T01:02:16.308Z,99201.47
2024-05-09T01:07:18.168Z,99203.84
2024-05-09T01:12:20.169Z,99197.63
2024-05-09T01:17:22.257Z,99197.50
2024-05-09T01:22:27.380Z,99195.00
2024-05-09T01:27:30.828Z,99201.03
2024-05-09T01:32:32.761Z,99199.75
2024-05-09T01:37:34.612Z,99204.59
2024-05-09T01:42:36.669Z,99204.00
2024-05-09T01:47:38.632Z,99204.44
2024-05-09T01:52:40.654Z,99201.72
2024-05-09T01:57:42.495Z,99204.53
2024-05-09T02:02:45.766Z,99190.78
2024-05-09T02:07:47.739Z,99200.22
2024-05-09T02:12:49.599Z,99201.09
2024-05-09T02:17:51.915Z,99204.78
2024-05-09T02:22:54.087Z,99214.56
2024-05-09T02:27:55.913Z,99208.59
2024-05-09T02:32:57.893Z,99216.00
2024-05-09T02:38:00.093Z,99207.00
2024-05-09T02:43:01.990Z,99212.78
2024-05-09T02:48:04.255Z,99197.38
2024-05-09T02:53:10.906Z,99201.03
2024-05-09T02:58:12.804Z,99198.81
2024-05-09T03:03:15.760Z,99207.28
2024-05-09T03:08:18.129Z,99208.06
2024-05-09T03:13:20.105Z,99200.31
2024-05-09T03:18:22.097Z,99215.94
2024-05-09T03:23:24.041Z,99210.84
2024-05-09T03:28:25.866Z,99205.94
2024-05-09T03:33:27.856Z,99201.81
2024-05-09T03:38:30.196Z,99210.44
2024-05-09T03:43:32.007Z,99203.00
2024-05-09T03:48:36.647Z,99200.41
2024-05-09T03:53:38.579Z,99209.28
2024-05-09T03:58:40.524Z,99208.25
2024-05-09T04:03:42.489Z,99209.19
2024-05-09T04:08:44.442Z,99208.03
2024-05-09T04:13:46.381Z,99207.69
2024-05-09T04:18:48.361Z,99210.25
2024-05-09T04:23:52.962Z,99215.03
2024-05-09T04:28:54.771Z,99219.94
2024-05-09T04:33:56.978Z,99211.44
2024-05-09T04:38:59.246Z,99218.00
2024-05-09T04:44:01.265Z,99219.56
2024-05-09T04:49:03.396Z,99227.03
2024-05-09T04:54:05.573Z,99228.09
2024-05-09T04:59:08.839Z,99238.81
2024-05-09T05:04:11.134Z,99231.00
2024-05-09T05:09:13.373Z,99227.94
2024-05-09T05:14:15.503Z,99230.16
2024-05-09T05:19:17.876Z,99234.72
2024-05-09T05:24:19.812Z,99236.94
2024-05-09T05:29:22.082Z,99229.91
2024-05-09T05:34:24.037Z,99231.28
2024-05-09T05:39:26.320Z,99231.84
2024-05-09T05:44:28.316Z,99237.84
2024-05-09T05:49:30.430Z,99237.09
2024-05-09T05:54:32.388Z,99242.44
2024-05-09T05:59:34.925Z,99235.78
2024-05-09T06:04:37.014Z,99242.41
2024-05-09T06:09:39.192Z,99246.38
2024-05-09T06:14:41.585Z,99251.03
2024-05-09T06:19:43.602Z,99255.63
2024-05-09T06:24:46.185Z,99251.00
2024-05-09T06:29:48.130Z,99241.25
2024-05-09T06:34:50.225Z,99253.28
2024-05-09T06:39:52.506Z,99241.44
2024-05-09T06:44:54.852Z,99257.59
2024-05-09T06:49:57.459Z,99254.16
2024-05-09T06:54:59.613Z,99262.25
2024-05-09T07:00:01.457Z,99261.66
2024-05-09T07:05:03.559Z,99256.66
2024-05-09T07:10:07.815Z,99245.25
2024-05-09T07:15:12.281Z,99244.78
2024-05-09T07:20:22.900Z,99249.63
2024-05-09T07:25:30.062Z,99248.31
2024-05-09T07:30:34.455Z,99251.75
2024-05-09T07:35:37.157Z,99258.09
2024-05-09T07:40:40.489Z,99258.16
2024-05-09T07:45:51.071Z,99241.00
2024-05-09T07:52:39.252Z,99246.56
2024-05-09T07:56:19.725Z,99242.66
2024-05-09T08:01:26.538Z,99237.16
2024-05-09T08:06:29.009Z,99236.78
2024-05-09T08:11:32.391Z,99226.19
2024-05-09T08:16:34.254Z,99230.97
2024-05-09T08:21:36.122Z,99227.06
2024-05-09T08:26:38.052Z,99230.16
2024-05-09T08:31:40.019Z,99237.25
2024-05-09T08:36:42.464Z,99234.88
2024-05-09T08:41:49.748Z,99231.72
2024-05-09T08:46:52.200Z,99228.53
2024-05-09T08:51:54.185Z,99229.28
2024-05-09T08:56:58.089Z,99221.41
2024-05-09T09:02:00.229Z,99237.13
2024-05-09T09:07:03.687Z,99227.69
2024-05-09T09:12:07.888Z,99216.59
2024-05-09T09:17:16.364Z,99226.44
2024-05-09T09:22:19.837Z,99232.69
2024-05-09T09:27:22.353Z,99221.28
2024-05-09T09:32:29.114Z,99217.66
2024-05-09T09:37:31.237Z,99231.41
2024-05-09T09:42:35.461Z,99225.91
2024-05-09T09:47:40.180Z,99230.34
2024-05-09T09:52:42.103Z,99231.56
2024-05-09T09:57:48.907Z,99217.03
2024-05-09T10:02:50.830Z,99218.94
2024-05-09T10:07:53.505Z,99219.66
2024-05-09T10:13:00.081Z,99208.81
2024-05-09T10:18:06.661Z,99221.72
2024-05-09T10:23:24.917Z,99204.53
2024-05-09T10:28:28.040Z,99218.78
2024-05-09T10:33:46.942Z,99212.50
2024-05-09T10:43:51.920Z,99202.75
2024-05-09T10:48:54.445Z,99214.84
2024-05-09T10:53:59.075Z,99202.84
2024-05-09T10:59:04.088Z,99193.88
2024-05-09T11:04:06.126Z,99190.63
2024-05-09T11:09:08.827Z,99181.22
2024-05-09T11:14:13.923Z,99167.97
2024-05-09T11:19:16.035Z,99183.66
2024-05-09T11:24:19.091Z,99176.69
2024-05-09T11:29:20.971Z,99167.16
2024-05-09T11:34:22.861Z,99160.88
2024-05-09T11:39:25.123Z,99153.88
2024-05-09T11:44:27.306Z,99158.22
2024-05-09T11:49:29.253Z,99149.25
2024-05-09T11:54:31.238Z,99149.34
2024-05-09T11:59:33.106Z,99155.56
2024-05-09T12:04:35.066Z,99145.50
2024-05-09T12:09:37.098Z,99138.94
2024-05-09T12:14:39.188Z,99138.19
2024-05-09T12:19:41.132Z,99141.44
2024-05-09T12:24:42.980Z,99141.28
2024-05-09T12:29:44.916Z,99135.59
2024-05-09T12:34:46.807Z,99134.03
2024-05-09T12:39:48.687Z,99123.59
2024-05-09T12:44:50.527Z,99116.28
2024-05-09T12:49:52.597Z,99107.63
2024-05-09T12:54:54.915Z,99095.69
2024-05-09T12:59:56.796Z,99089.44
2024-05-09T13:04:58.795Z,99096.22
2024-05-09T13:10:00.848Z,99077.06
2024-05-09T13:15:02.721Z,99071.53
2024-05-09T13:20:07.049Z,99063.63
2024-05-09T13:25:12.860Z,99056.28
2024-05-09T13:30:21.874Z,99067.38
2024-05-09T13:35:32.356Z,99052.16
2024-05-09T13:40:36.182Z,99060.72
2024-05-09T13:45:38.617Z,99050.78
2024-05-09T13:50:40.536Z,99058.63
2024-05-09T13:55:42.410Z,99048.88
2024-05-09T14:00:48.774Z,99042.78
2024-05-09T14:05:52.169Z,99040.75
2024-05-09T14:10:54.554Z,99042.34
2024-05-09T14:15:56.715Z,99039.91
2024-05-09T14:20:58.678Z,99027.69
2024-05-09T14:26:00.496Z,99022.16
2024-05-09T14:31:02.405Z,99015.75
2024-05-09T14:36:04.495Z,99009.41
2024-05-09T14:41:07.808Z,99005.41
2024-05-09T14:46:10.244Z,99007.91
2024-05-09T14:51:12.187Z,99001.59
2024-05-09T14:56:14.980Z,98996.06
2024-05-09T15:01:17.044Z,98982.31
2024-05-09T15:06:19.426Z,98982.09
2024-05-09T15:11:21.428Z,98971.13
2024-05-09T15:16:24.052Z,98975.06
2024-05-09T15:21:26.006Z,98977.09
2024-05-09T15:26:28.422Z,98972.03
2024-05-09T15:31:30.498Z,98969.03
2024-05-09T15:36:32.977Z,98958.75
2024-05-09T15:41:34.828Z,98960.34
2024-05-09T15:46:37.741Z,98949.31
2024-05-09T15:51:40.250Z,98947.06
2024-05-09T15:56:47.225Z,98947.88
2024-05-09T16:01:49.300Z,98944.38
2024-05-09T16:06:51.807Z,98947.16
2024-05-09T16:11:53.843Z,98941.72
2024-05-09T16:16:56.503Z,98943.00
2024-05-09T16:22:00.638Z,98934.78
2024-05-09T16:27:03.302Z,98928.53
2024-05-09T16:32:06.150Z,98932.13
2024-05-09T16:37:10.703Z,98935.25
2024-05-09T16:42:12.590Z,98938.75
2024-05-09T16:47:18.119Z,98913.56
2024-05-09T16:52:23.496Z,98927.47
2024-05-09T16:57:25.950Z,98928.28
2024-05-09T17:02:28.098Z,98933.13
2024-05-09T17:07:30.602Z,98926.47
2024-05-09T17:12:32.680Z,98927.31
2024-05-09T17:17:35.149Z,98920.66
2024-05-09T17:22:37.042Z,98927.06
2024-05-09T17:27:39.172Z,98929.25
2024-05-09T17:32:41.402Z,98921.44
2024-05-09T17:37:43.414Z,98918.66
2024-05-09T17:42:45.898Z,98914.31
2024-05-09T17:47:48.052Z,98923.75
2024-05-09T17:52:52.995Z,98919.03
2024-05-09T17:57:55.255Z,98923.81
2024-05-09T18:02:57.142Z,98923.94
2024-05-09T18:07:59.616Z,98915.41
2024-05-09T18:13:01.602Z,98919.38
2024-05-09T18:18:04.433Z,98912.69
2024-05-09T18:23:07.168Z,98922.50
2024-05-09T18:28:10.816Z,98926.09
2024-05-09T18:33:13.978Z,98924.59
2024-05-09T18:38:18.915Z,98925.84
2024-05-09T18:43:28.710Z,98924.34
2024-05-09T18:48:37.120Z,98924.38
2024-05-09T18:53:39.866Z,98933.03
2024-05-09T18:58:43.707Z,98946.03
2024-05-09T19:03:48.501Z,98942.91
2024-05-09T19:08:53.710Z,98953.88
2024-05-09T19:13:56.691Z,98948.03
2024-05-09T19:19:00.782Z,98952.69
2024-05-09T19:24:03.535Z,98954.25
2024-05-09T19:29:06.957Z,98948.72
2024-05-09T19:34:09.530Z,98952.63
2024-05-09T19:39:12.170Z,98954.16
2024-05-09T19:44:14.361Z,98949.03
2024-05-09T19:49:16.900Z,98951.75
2024-05-09T19:54:18.947Z,98951.69
2024-05-09T19:59:21.345Z,98964.22
2024-05-09T20:04:23.575Z,98964.94
2024-05-09T20:09:26.174Z,98963.34
2024-05-09T20:14:28.185Z,98959.38
2024-05-09T20:19:30.992Z,98962.47
2024-05-09T20:24:33.637Z,98974.97
2024-05-09T20:29:35.558Z,98970.97
2024-05-09T20:34:37.770Z,98969.72
2024-05-09T20:39:40.259Z,98971.66
2024-05-09T20:44:42.678Z,98969.25
2024-05-09T20:49:46.434Z,98960.75
2024-05-09T20:54:48.533Z,98962.28
2024-05-09T20:59:50.402Z,98965.75
2024-05-09T21:04:52.462Z,98965.63
2024-05-09T21:09:57.342Z,98979.59
2024-05-09T21:14:59.333Z,98975.97
2024-05-09T21:20:01.193Z,98975.06
2024-05-09T21:25:03.075Z,98968.75
2024-05-09T21:30:07.776Z,98962.53
2024-05-09T21:35:11.761Z,98969.06
2024-05-09T21:40:17.170Z,98970.91
2024-05-09T21:45:26.120Z,98971.59
2024-05-09T21:50:35.816Z,98969.94
2024-05-09T21:55:42.615Z,98969.00
2024-05-09T22:00:46.492Z,98976.28
2024-05-09T22:05:48.611Z,98968.41
2024-05-09T22:15:53.016Z,98969.31
2024-05-09T22:20:55.376Z,98970.06
2024-05-09T22:25:57.229Z,98975.06
2024-05-09T22:30:59.087Z,98978.72
2024-05-09T22:36:00.932Z,98975.97
2024-05-09T22:41:06.943Z,98968.72
2024-05-09T22:46:08.936Z,98972.09
2024-05-09T22:51:12.364Z,98969.44
2024-05-09T22:56:15.031Z,98960.63
2024-05-09T23:01:16.945Z,98962.06
2024-05-09T23:06:19.316Z,98960.16
2024-05-09T23:11:21.174Z,98964.06
2024-05-09T23:16:23.200Z,98957.16
2024-05-09T23:21:25.136Z,98955.56
2024-05-09T23:26:26.983Z,98952.44
2024-05-09T23:31:28.964Z,98953.53
2024-05-09T23:36:31.228Z,98951.78
2024-05-09T23:41:33.123Z,98956.19
2024-05-09T23:46:35.397Z,98955.31
2024-05-09T23:51:37.591Z,98946.97
2024-05-09T23:56:39.459Z,98950.59
